Grande Italia — IBTF — position and weather

sailwx.info

Track history (hours):
 
Tides and Currents Weather Stations Pressure Air Temp Water Temp Dewpoint Dewpoint Depression Visibility Wind Speed Wind Dir Waves Ship Positions

Grande Italia

Last reported at 2015-Apr-28 01:33 UTC. Time now 2015-Apr-28 02:08 UTC.
Position N 53°39' E 005°45'.

Length 177 m; draft 7.7 m.

Type: Ship. MMSI: 247039300.

Date/timePositionNaut miles runAvg speedWind from/ knotsBaromVisibWave heightAir tempDewpointWater temp
2015-Apr-28 01:33N 53°39' E 005°45'1514.8
2015-Apr-28 00:33N 53°33' E 005°21'1817.6
2015-Apr-27 23:33N 53°27' E 004°54'1816.9
2015-Apr-27 22:31N 53°14' E 004°33'1717.6
2015-Apr-27 21:31N 52°59' E 004°20'2117.3
2015-Apr-27 20:20N 52°43' E 003°57'3216.5
2015-Apr-27 18:25N 52°16' E 003°30'1517.0
2015-Apr-27 17:33N 52°02' E 003°24'1915.9
2015-Apr-27 16:23N 51°44' E 003°15'1112.9
2015-Apr-27 15:32N 51°34' E 003°09'10 9.9
2015-Apr-27 14:33N 51°24' E 003°08'1818.1
2015-Apr-27 13:33N 51°26' E 003°37'3 2.8
2015-Apr-27 12:32N 51°28' E 003°41'0 0.0
2015-Apr-27 11:29N 51°28' E 003°41'0 0.0
2015-Apr-27 10:34N 51°28' E 003°41'0 0.0
2015-Apr-27 09:34N 51°28' E 003°41'0 0.0
2015-Apr-27 08:33N 51°28' E 003°41'0 0.0
2015-Apr-27 07:33N 51°28' E 003°41'0 0.0
2015-Apr-27 06:33N 51°28' E 003°41'0 0.0
2015-Apr-27 05:34N 51°28' E 003°41'0 0.0
2015-Apr-27 04:33N 51°28' E 003°41'2 2.2
2015-Apr-27 03:33N 51°26' E 003°38'1211.5
2015-Apr-27 02:34N 51°24' E 003°20'1515.0
2015-Apr-27 01:34N 51°22' E 002°56'1111.2
2015-Apr-27 00:33N 51°22' E 002°38'4 3.8
2015-Apr-26 23:33N 51°22' E 002°32'6 5.6
2015-Apr-26 22:33N 51°20' E 002°24'1211.9
2015-Apr-26 21:34N 51°14' E 002°07'1514.9
2015-Apr-26 20:34N 51°07' E 001°47'1716.6
2015-Apr-26 19:34N 50°55' E 001°28'4914.2
2015-Apr-26 16:05N 50°25' E 000°26'79115.9
2015-Apr-24 14:15N 39°25' W 009°51'1116.2
2015-Apr-24 13:33N 39°14' W 009°51'1616.3
2015-Apr-24 12:33N 38°58' W 009°52'1616.1
2015-Apr-24 11:33N 38°41' W 009°51'1615.9
2015-Apr-24 10:33N 38°26' W 009°46'1515.3
2015-Apr-24 09:33N 38°11' W 009°41'1615.7
2015-Apr-24 08:32N 37°56' W 009°37'1515.7
2015-Apr-24 07:33N 37°41' W 009°32'1515.2
2015-Apr-24 06:33N 37°26' W 009°28'1515.2
2015-Apr-24 05:33N 37°11' W 009°24'1615.0
2015-Apr-24 04:30N 36°55' W 009°20'1614.2
2015-Apr-24 03:21N 36°44' W 009°05'1214.7
2015-Apr-24 02:30N 36°40' W 008°50'1414.7
2015-Apr-24 01:34N 36°35' W 008°35'1514.6
2015-Apr-24 00:34N 36°30' W 008°18'1514.8
2015-Apr-23 23:33N 36°25' W 008°00'1514.8
2015-Apr-23 22:33N 36°20' W 007°43'1514.6
2015-Apr-23 21:33N 36°15' W 007°26'1514.9
2015-Apr-23 20:33N 36°08' W 007°09'1514.8
2015-Apr-23 19:31N 35°60' W 006°54'1414.1
2015-Apr-23 18:33N 35°57' W 006°37'5014.7
2015-Apr-23 15:11N 35°58' W 005°36'1014.9
2015-Apr-23 14:33N 36°01' W 005°25'21615.3
2015-Apr-23 00:24N 37°08' W 001°09'1315.4
2015-Apr-22 23:33N 37°17' W 000°57'1615.6
2015-Apr-22 22:33N 37°27' W 000°42'1615.6
2015-Apr-22 21:33N 37°38' W 000°28'1615.7
2015-Apr-22 20:33N 37°52' W 000°18'1615.6
2015-Apr-22 19:33N 38°05' W 000°07'1615.6
2015-Apr-22 18:33N 38°18' E 000°04'1515.4
2015-Apr-22 17:33N 38°31' E 000°14'5713.4
2015-Apr-22 13:19N 39°23' W 000°14'5 5.8
2015-Apr-22 12:32N 39°26' W 000°18'0 0.0
2015-Apr-22 11:32N 39°26' W 000°18'0 0.0
2015-Apr-22 10:32N 39°26' W 000°18'0 0.0
2015-Apr-22 09:32N 39°26' W 000°18'0 0.0
2015-Apr-22 08:32N 39°26' W 000°18'0 0.0
2015-Apr-22 07:32N 39°26' W 000°18'0 0.0
2015-Apr-22 06:32N 39°26' W 000°18'0 0.0
2015-Apr-22 05:32N 39°26' W 000°18'0 0.0
2015-Apr-22 04:32N 39°26' W 000°18'0 0.0
2015-Apr-22 03:32N 39°26' W 000°18'0 0.0
2015-Apr-22 02:32N 39°26' W 000°18'0 0.0
2015-Apr-22 01:29N 39°26' W 000°18'0 0.0
2015-Apr-22 00:32N 39°26' W 000°18'0 0.0
2015-Apr-21 23:32N 39°26' W 000°18'0 0.0
2015-Apr-21 22:32N 39°26' W 000°18'0 0.0
2015-Apr-21 21:32N 39°26' W 000°18'0 0.0
2015-Apr-21 20:32N 39°26' W 000°18'0 0.0
2015-Apr-21 19:32N 39°26' W 000°18'0 0.0
2015-Apr-21 18:32N 39°26' W 000°18'0 0.0
2015-Apr-21 17:32N 39°26' W 000°18'0 0.0
2015-Apr-21 16:32N 39°26' W 000°18'0 0.0
2015-Apr-21 15:29N 39°26' W 000°18'0 0.0
2015-Apr-21 14:32N 39°26' W 000°18'0 0.0
2015-Apr-21 13:32N 39°26' W 000°18'0 0.0
2015-Apr-21 12:32N 39°26' W 000°18'0 0.0
2015-Apr-21 11:32N 39°26' W 000°18'0 0.0
2015-Apr-21 10:32N 39°26' W 000°18'0 0.0
2015-Apr-21 09:32N 39°26' W 000°18'0 0.0
2015-Apr-21 08:32N 39°26' W 000°18'0 0.0
2015-Apr-21 07:32N 39°26' W 000°18'0 0.0
2015-Apr-21 06:32N 39°26' W 000°18'2 2.2
2015-Apr-21 05:33N 39°25' W 000°16'5817.5
2015-Apr-21 02:16N 39°47' E 000°53'1217.3
2015-Apr-21 01:33N 39°57' E 001°03'1817.7
2015-Apr-21 00:33N 40°12' E 001°15'1817.9
2015-Apr-20 23:33N 40°27' E 001°28'1817.6
2015-Apr-20 22:33N 40°41' E 001°41'1717.4
2015-Apr-20 21:33N 40°56' E 001°53'1817.2
2015-Apr-20 20:29N 41°11' E 002°07'9 9.5
2015-Apr-20 19:33N 41°20' E 002°09'0 0.2
2015-Apr-20 18:22N 41°20' E 002°09'0 0.0
2015-Apr-20 16:28N 41°20' E 002°09'0 0.0
2015-Apr-20 15:33N 41°20' E 002°09'0 0.0
2015-Apr-20 14:33N 41°20' E 002°09'0 0.0
2015-Apr-20 13:33N 41°20' E 002°09'0 0.0
2015-Apr-20 12:32N 41°20' E 002°09'0 0.0
2015-Apr-20 11:27N 41°20' E 002°09'0 0.0
2015-Apr-20 10:31N 41°20' E 002°09'0 0.0
2015-Apr-20 09:16N 41°20' E 002°09'0 0.0
2015-Apr-20 07:13N 41°20' E 002°09'0 0.0
2015-Apr-20 03:31N 41°20' E 002°09'0 0.0
2015-Apr-20 01:29N 41°20' E 002°09'0 0.0
2015-Apr-20 00:28N 41°20' E 002°09'0 0.0
2015-Apr-19 21:19N 41°20' E 002°09'2 1.3
2015-Apr-19 19:30N 41°18' E 002°11'6 6.6
2015-Apr-19 18:33N 41°12' E 002°09'7 6.7
2015-Apr-19 17:34N 41°06' E 002°06'1 1.2
2015-Apr-19 16:33N 41°05' E 002°08'2 1.7
2015-Apr-19 15:32N 41°07' E 002°09'1 1.4
2015-Apr-19 14:33N 41°08' E 002°10'1 0.9
2015-Apr-19 13:34N 41°09' E 002°10'0 0.5
2015-Apr-19 12:33N 41°09' E 002°10'1 0.9
2015-Apr-19 11:34N 41°09' E 002°09'1 0.6
2015-Apr-19 10:33N 41°10' E 002°09'1 0.7
2015-Apr-19 09:33N 41°10' E 002°08'1 0.8
2015-Apr-19 08:33N 41°11' E 002°09'1 1.1
2015-Apr-19 07:33N 41°12' E 002°10'3 2.8
2015-Apr-19 06:28N 41°14' E 002°12'6014.3
2015-Apr-19 02:16N 41°50' E 003°17'1014.8
2015-Apr-19 01:34N 41°58' E 003°27'3014.9
2015-Apr-18 23:33N 42°20' E 003°54'1615.2
2015-Apr-18 22:31N 42°32' E 004°08'1915.3
2015-Apr-18 21:16N 42°46' E 004°26'1615.1
2015-Apr-18 20:14N 42°57' E 004°41'1014.3
2015-Apr-18 19:33N 43°03' E 004°51'1313.2
2015-Apr-18 18:33N 43°14' E 005°00'1211.7
2015-Apr-18 17:33N 43°24' E 004°51'0 0.4
2015-Apr-18 16:30N 43°24' E 004°51'0 0.0
2015-Apr-18 15:33N 43°24' E 004°51'0 0.0
2015-Apr-18 14:33N 43°24' E 004°51'0 0.0
2015-Apr-18 13:30N 43°24' E 004°51'0 0.0
2015-Apr-18 12:30N 43°24' E 004°51'0 0.0
2015-Apr-18 11:33N 43°24' E 004°51'0 0.0
2015-Apr-18 10:33N 43°24' E 004°51'0 0.0
2015-Apr-18 09:15N 43°24' E 004°51'0 0.0
2015-Apr-18 08:33N 43°24' E 004°51'0 0.0
2015-Apr-18 07:33N 43°24' E 004°51'0 0.0
2015-Apr-18 06:33N 43°24' E 004°51'0 0.0
2015-Apr-18 05:24N 43°24' E 004°51'0 0.0
2015-Apr-18 04:33N 43°24' E 004°51'0 0.0
2015-Apr-18 03:15N 43°24' E 004°51'0 0.0
2015-Apr-18 02:33N 43°24' E 004°51'  
Track history (hours):
 
Tides and Currents Weather Stations Pressure Air Temp Water Temp Dewpoint Dewpoint Depression Visibility Wind Speed Wind Dir Waves Ship Positions

Grande Italia

Last reported at 2015-Apr-28 01:33 UTC. Time now 2015-Apr-28 02:08 UTC.
Position N 53°39' E 005°45'.

Length 177 m; draft 7.7 m.

Type: Ship. MMSI: 247039300.

Date/timePositionNaut miles runAvg speedWind from/ knotsBaromVisibWave heightAir tempDewpointWater temp
2015-Apr-28 01:33N 53°39' E 005°45'1514.8
2015-Apr-28 00:33N 53°33' E 005°21'1817.6
2015-Apr-27 23:33N 53°27' E 004°54'1816.9
2015-Apr-27 22:31N 53°14' E 004°33'1717.6
2015-Apr-27 21:31N 52°59' E 004°20'2117.3
2015-Apr-27 20:20N 52°43' E 003°57'3216.5
2015-Apr-27 18:25N 52°16' E 003°30'1517.0
2015-Apr-27 17:33N 52°02' E 003°24'1915.9
2015-Apr-27 16:23N 51°44' E 003°15'1112.9
2015-Apr-27 15:32N 51°34' E 003°09'10 9.9
2015-Apr-27 14:33N 51°24' E 003°08'1818.1
2015-Apr-27 13:33N 51°26' E 003°37'3 2.8
2015-Apr-27 12:32N 51°28' E 003°41'0 0.0
2015-Apr-27 11:29N 51°28' E 003°41'0 0.0
2015-Apr-27 10:34N 51°28' E 003°41'0 0.0
2015-Apr-27 09:34N 51°28' E 003°41'0 0.0
2015-Apr-27 08:33N 51°28' E 003°41'0 0.0
2015-Apr-27 07:33N 51°28' E 003°41'0 0.0
2015-Apr-27 06:33N 51°28' E 003°41'0 0.0
2015-Apr-27 05:34N 51°28' E 003°41'0 0.0
2015-Apr-27 04:33N 51°28' E 003°41'2 2.2
2015-Apr-27 03:33N 51°26' E 003°38'1211.5
2015-Apr-27 02:34N 51°24' E 003°20'1515.0
2015-Apr-27 01:34N 51°22' E 002°56'1111.2
2015-Apr-27 00:33N 51°22' E 002°38'4 3.8
2015-Apr-26 23:33N 51°22' E 002°32'6 5.6
2015-Apr-26 22:33N 51°20' E 002°24'1211.9
2015-Apr-26 21:34N 51°14' E 002°07'1514.9
2015-Apr-26 20:34N 51°07' E 001°47'1716.6
2015-Apr-26 19:34N 50°55' E 001°28'4914.2
2015-Apr-26 16:05N 50°25' E 000°26'79115.9
2015-Apr-24 14:15N 39°25' W 009°51'1116.2
2015-Apr-24 13:33N 39°14' W 009°51'1616.3
2015-Apr-24 12:33N 38°58' W 009°52'1616.1
2015-Apr-24 11:33N 38°41' W 009°51'1615.9
2015-Apr-24 10:33N 38°26' W 009°46'1515.3
2015-Apr-24 09:33N 38°11' W 009°41'1615.7
2015-Apr-24 08:32N 37°56' W 009°37'1515.7
2015-Apr-24 07:33N 37°41' W 009°32'1515.2
2015-Apr-24 06:33N 37°26' W 009°28'1515.2
2015-Apr-24 05:33N 37°11' W 009°24'1615.0
2015-Apr-24 04:30N 36°55' W 009°20'1614.2
2015-Apr-24 03:21N 36°44' W 009°05'1214.7
2015-Apr-24 02:30N 36°40' W 008°50'1414.7
2015-Apr-24 01:34N 36°35' W 008°35'1514.6
2015-Apr-24 00:34N 36°30' W 008°18'1514.8
2015-Apr-23 23:33N 36°25' W 008°00'1514.8
2015-Apr-23 22:33N 36°20' W 007°43'1514.6
2015-Apr-23 21:33N 36°15' W 007°26'1514.9
2015-Apr-23 20:33N 36°08' W 007°09'1514.8
2015-Apr-23 19:31N 35°60' W 006°54'1414.1
2015-Apr-23 18:33N 35°57' W 006°37'5014.7
2015-Apr-23 15:11N 35°58' W 005°36'1014.9
2015-Apr-23 14:33N 36°01' W 005°25'21615.3
2015-Apr-23 00:24N 37°08' W 001°09'1315.4
2015-Apr-22 23:33N 37°17' W 000°57'1615.6
2015-Apr-22 22:33N 37°27' W 000°42'1615.6
2015-Apr-22 21:33N 37°38' W 000°28'1615.7
2015-Apr-22 20:33N 37°52' W 000°18'1615.6
2015-Apr-22 19:33N 38°05' W 000°07'1615.6
2015-Apr-22 18:33N 38°18' E 000°04'1515.4
2015-Apr-22 17:33N 38°31' E 000°14'5713.4
2015-Apr-22 13:19N 39°23' W 000°14'5 5.8
2015-Apr-22 12:32N 39°26' W 000°18'0 0.0
2015-Apr-22 11:32N 39°26' W 000°18'0 0.0
2015-Apr-22 10:32N 39°26' W 000°18'0 0.0
2015-Apr-22 09:32N 39°26' W 000°18'0 0.0
2015-Apr-22 08:32N 39°26' W 000°18'0 0.0
2015-Apr-22 07:32N 39°26' W 000°18'0 0.0
2015-Apr-22 06:32N 39°26' W 000°18'0 0.0
2015-Apr-22 05:32N 39°26' W 000°18'0 0.0
2015-Apr-22 04:32N 39°26' W 000°18'0 0.0
2015-Apr-22 03:32N 39°26' W 000°18'0 0.0
2015-Apr-22 02:32N 39°26' W 000°18'0 0.0
2015-Apr-22 01:29N 39°26' W 000°18'0 0.0
2015-Apr-22 00:32N 39°26' W 000°18'0 0.0
2015-Apr-21 23:32N 39°26' W 000°18'0 0.0
2015-Apr-21 22:32N 39°26' W 000°18'0 0.0
2015-Apr-21 21:32N 39°26' W 000°18'0 0.0
2015-Apr-21 20:32N 39°26' W 000°18'0 0.0
2015-Apr-21 19:32N 39°26' W 000°18'0 0.0
2015-Apr-21 18:32N 39°26' W 000°18'0 0.0
2015-Apr-21 17:32N 39°26' W 000°18'0 0.0
2015-Apr-21 16:32N 39°26' W 000°18'0 0.0
2015-Apr-21 15:29N 39°26' W 000°18'0 0.0
2015-Apr-21 14:32N 39°26' W 000°18'0 0.0
2015-Apr-21 13:32N 39°26' W 000°18'0 0.0
2015-Apr-21 12:32N 39°26' W 000°18'0 0.0
2015-Apr-21 11:32N 39°26' W 000°18'0 0.0
2015-Apr-21 10:32N 39°26' W 000°18'0 0.0
2015-Apr-21 09:32N 39°26' W 000°18'0 0.0
2015-Apr-21 08:32N 39°26' W 000°18'0 0.0
2015-Apr-21 07:32N 39°26' W 000°18'0 0.0
2015-Apr-21 06:32N 39°26' W 000°18'2 2.2
2015-Apr-21 05:33N 39°25' W 000°16'5817.5
2015-Apr-21 02:16N 39°47' E 000°53'1217.3
2015-Apr-21 01:33N 39°57' E 001°03'1817.7
2015-Apr-21 00:33N 40°12' E 001°15'1817.9
2015-Apr-20 23:33N 40°27' E 001°28'1817.6
2015-Apr-20 22:33N 40°41' E 001°41'1717.4
2015-Apr-20 21:33N 40°56' E 001°53'1817.2
2015-Apr-20 20:29N 41°11' E 002°07'9 9.5
2015-Apr-20 19:33N 41°20' E 002°09'0 0.2
2015-Apr-20 18:22N 41°20' E 002°09'0 0.0
2015-Apr-20 16:28N 41°20' E 002°09'0 0.0
2015-Apr-20 15:33N 41°20' E 002°09'0 0.0
2015-Apr-20 14:33N 41°20' E 002°09'0 0.0
2015-Apr-20 13:33N 41°20' E 002°09'0 0.0
2015-Apr-20 12:32N 41°20' E 002°09'0 0.0
2015-Apr-20 11:27N 41°20' E 002°09'0 0.0
2015-Apr-20 10:31N 41°20' E 002°09'0 0.0
2015-Apr-20 09:16N 41°20' E 002°09'0 0.0
2015-Apr-20 07:13N 41°20' E 002°09'0 0.0
2015-Apr-20 03:31N 41°20' E 002°09'0 0.0
2015-Apr-20 01:29N 41°20' E 002°09'0 0.0
2015-Apr-20 00:28N 41°20' E 002°09'0 0.0
2015-Apr-19 21:19N 41°20' E 002°09'2 1.3
2015-Apr-19 19:30N 41°18' E 002°11'6 6.6
2015-Apr-19 18:33N 41°12' E 002°09'7 6.7
2015-Apr-19 17:34N 41°06' E 002°06'1 1.2
2015-Apr-19 16:33N 41°05' E 002°08'2 1.7
2015-Apr-19 15:32N 41°07' E 002°09'1 1.4
2015-Apr-19 14:33N 41°08' E 002°10'1 0.9
2015-Apr-19 13:34N 41°09' E 002°10'0 0.5
2015-Apr-19 12:33N 41°09' E 002°10'1 0.9
2015-Apr-19 11:34N 41°09' E 002°09'1 0.6
2015-Apr-19 10:33N 41°10' E 002°09'1 0.7
2015-Apr-19 09:33N 41°10' E 002°08'1 0.8
2015-Apr-19 08:33N 41°11' E 002°09'1 1.1
2015-Apr-19 07:33N 41°12' E 002°10'3 2.8
2015-Apr-19 06:28N 41°14' E 002°12'6014.3
2015-Apr-19 02:16N 41°50' E 003°17'1014.8
2015-Apr-19 01:34N 41°58' E 003°27'3014.9
2015-Apr-18 23:33N 42°20' E 003°54'1615.2
2015-Apr-18 22:31N 42°32' E 004°08'1915.3
2015-Apr-18 21:16N 42°46' E 004°26'1615.1
2015-Apr-18 20:14N 42°57' E 004°41'1014.3
2015-Apr-18 19:33N 43°03' E 004°51'1313.2
2015-Apr-18 18:33N 43°14' E 005°00'1211.7
2015-Apr-18 17:33N 43°24' E 004°51'0 0.4
2015-Apr-18 16:30N 43°24' E 004°51'0 0.0
2015-Apr-18 15:33N 43°24' E 004°51'0 0.0
2015-Apr-18 14:33N 43°24' E 004°51'0 0.0
2015-Apr-18 13:30N 43°24' E 004°51'0 0.0
2015-Apr-18 12:30N 43°24' E 004°51'0 0.0
2015-Apr-18 11:33N 43°24' E 004°51'0 0.0
2015-Apr-18 10:33N 43°24' E 004°51'0 0.0
2015-Apr-18 09:15N 43°24' E 004°51'0 0.0
2015-Apr-18 08:33N 43°24' E 004°51'0 0.0
2015-Apr-18 07:33N 43°24' E 004°51'0 0.0
2015-Apr-18 06:33N 43°24' E 004°51'0 0.0
2015-Apr-18 05:24N 43°24' E 004°51'0 0.0
2015-Apr-18 04:33N 43°24' E 004°51'0 0.0
2015-Apr-18 03:15N 43°24' E 004°51'0 0.0
2015-Apr-18 02:33N 43°24' E 004°51'  

Dump ship's entire track history